createdAt,value
2023-03-18T00:00:58.560Z,933.57
2023-03-18T00:01:59.597Z,933.58
2023-03-18T00:02:59.837Z,933.6
2023-03-18T00:04:00.897Z,933.6
2023-03-18T00:05:01.549Z,933.59
2023-03-18T00:06:02.019Z,933.59
2023-03-18T00:07:02.276Z,933.54
2023-03-18T00:08:03.285Z,933.55
2023-03-18T00:09:03.495Z,933.55
2023-03-18T00:10:04.149Z,933.57
2023-03-18T00:11:04.676Z,933.65
2023-03-18T00:12:04.907Z,933.58
2023-03-18T00:13:05.107Z,933.53
2023-03-18T00:14:05.444Z,933.54
2023-03-18T00:15:06.112Z,933.63
2023-03-18T00:16:06.711Z,933.67
2023-03-18T00:17:07.393Z,933.66
2023-03-18T00:18:07.613Z,933.62
2023-03-18T00:19:07.979Z,933.6
2023-03-18T00:20:08.187Z,933.62
2023-03-18T00:21:08.875Z,933.62
2023-03-18T00:22:09.444Z,933.62
2023-03-18T00:23:10.451Z,933.66
2023-03-18T00:24:10.656Z,933.68
2023-03-18T00:25:10.864Z,933.64
2023-03-18T00:26:11.526Z,933.64
2023-03-18T00:27:12.443Z,933.66
2023-03-18T00:28:12.699Z,933.69
2023-03-18T00:29:13.452Z,933.69
2023-03-18T00:30:13.995Z,933.72
2023-03-18T00:31:14.455Z,933.68
2023-03-18T00:32:14.887Z,933.71
2023-03-18T00:33:14.994Z,933.7
2023-03-18T00:34:16.084Z,933.69
2023-03-18T00:35:16.438Z,933.71
2023-03-18T00:36:16.766Z,933.72
2023-03-18T00:37:17.017Z,933.77
2023-03-18T00:38:17.340Z,933.79
2023-03-18T00:39:17.540Z,933.78
2023-03-18T00:40:17.761Z,933.74
2023-03-18T00:41:18.815Z,933.78
2023-03-18T00:42:19.029Z,933.75
2023-03-18T00:43:19.389Z,933.8
2023-03-18T00:44:19.676Z,933.76
2023-03-18T00:45:19.891Z,933.8
2023-03-18T00:46:20.858Z,933.85
2023-03-18T00:47:21.703Z,933.8
2023-03-18T00:48:21.898Z,933.8
2023-03-18T00:49:22.819Z,933.83
2023-03-18T00:50:23.030Z,933.81
2023-03-18T00:51:23.825Z,933.79
2023-03-18T00:52:24.391Z,933.82
2023-03-18T00:53:24.958Z,933.79
2023-03-18T00:54:25.273Z,933.75
2023-03-18T00:55:26.209Z,933.79
2023-03-18T00:56:26.845Z,933.79
2023-03-18T00:57:27.104Z,933.84
2023-03-18T00:58:28.067Z,933.79
2023-03-18T00:59:28.314Z,933.8
2023-03-18T01:00:28.521Z,933.8
2023-03-18T01:01:29.280Z,933.8
2023-03-18T01:02:30.318Z,933.8
2023-03-18T01:03:30.562Z,933.8
2023-03-18T01:04:30.926Z,933.8
2023-03-18T01:05:31.151Z,933.83
2023-03-18T01:06:31.802Z,933.8
2023-03-18T01:07:32.363Z,933.82
2023-03-18T01:08:33.130Z,933.74
2023-03-18T01:09:33.336Z,933.79
2023-03-18T01:10:34.279Z,933.82
2023-03-18T01:11:35.243Z,933.85
2023-03-18T01:12:35.436Z,933.82
2023-03-18T01:13:35.739Z,933.89
2023-03-18T01:14:36.515Z,933.84
2023-03-18T01:15:37.441Z,933.79
2023-03-18T01:16:37.710Z,933.9
2023-03-18T01:17:38.616Z,933.84
2023-03-18T01:18:38.858Z,933.85
2023-03-18T01:19:39.115Z,933.79
2023-03-18T01:20:39.622Z,933.81
2023-03-18T01:21:40.599Z,933.81
2023-03-18T01:22:40.877Z,933.85
2023-03-18T01:23:41.408Z,933.83
2023-03-18T01:24:42.470Z,933.77
2023-03-18T01:25:42.707Z,933.81
2023-03-18T01:26:43.636Z,933.82
2023-03-18T01:27:43.836Z,933.86
2023-03-18T01:28:44.333Z,933.84
2023-03-18T01:29:45.253Z,933.85
2023-03-18T01:30:46.162Z,933.8
2023-03-18T01:31:47.274Z,933.82
2023-03-18T01:32:47.863Z,933.86
2023-03-18T01:33:48.260Z,933.84
2023-03-18T01:34:48.620Z,933.89
2023-03-18T01:35:49.271Z,933.85
2023-03-18T01:36:50.364Z,933.92
2023-03-18T01:37:50.691Z,933.88
2023-03-18T01:38:50.989Z,933.89
2023-03-18T01:39:51.914Z,933.85
2023-03-18T01:40:52.123Z,933.87
2023-03-18T01:41:52.750Z,933.86
2023-03-18T01:42:53.386Z,933.85
2023-03-18T01:43:54.308Z,933.87
2023-03-18T01:44:55.028Z,933.82
2023-03-18T01:45:55.305Z,933.79
2023-03-18T01:46:56.249Z,933.81
2023-03-18T01:47:56.748Z,933.81
2023-03-18T01:48:56.970Z,933.74
2023-03-18T01:49:57.709Z,933.84
2023-03-18T01:50:58.095Z,933.78
2023-03-18T01:51:58.325Z,933.77
2023-03-18T01:52:58.575Z,933.78
2023-03-18T01:53:59.112Z,933.7
2023-03-18T01:55:00.151Z,933.77
2023-03-18T01:56:00.255Z,933.79
2023-03-18T01:57:00.472Z,933.83
2023-03-18T01:58:00.688Z,933.75
2023-03-18T01:59:01.844Z,933.77
2023-03-18T02:00:01.797Z,933.77
2023-03-18T02:01:02.743Z,933.78
2023-03-18T02:02:03.533Z,933.77
2023-03-18T02:03:03.802Z,933.75
2023-03-18T02:04:04.007Z,933.72
2023-03-18T02:05:05.004Z,933.78
2023-03-18T02:06:05.952Z,933.77
2023-03-18T02:07:06.914Z,933.74
2023-03-18T02:08:07.164Z,933.73
2023-03-18T02:09:07.721Z,933.78
2023-03-18T02:11:08.496Z,933.75
2023-03-18T02:12:08.983Z,933.77
2023-03-18T02:13:09.915Z,933.75
2023-03-18T02:14:10.832Z,933.74
2023-03-18T02:15:11.171Z,933.78
2023-03-18T02:16:11.399Z,933.73
2023-03-18T02:17:11.765Z,933.75
2023-03-18T02:18:12.002Z,933.79
2023-03-18T02:19:12.968Z,933.76
2023-03-18T02:20:13.221Z,933.76
2023-03-18T02:21:14.174Z,933.77
2023-03-18T02:22:15.139Z,933.75
2023-03-18T02:23:15.765Z,933.69
2023-03-18T02:24:16.389Z,933.71
2023-03-18T02:25:17.110Z,933.75
2023-03-18T02:26:18.058Z,933.72
2023-03-18T02:27:18.701Z,933.74
2023-03-18T02:28:19.625Z,933.77
2023-03-18T02:29:19.841Z,933.77
2023-03-18T02:30:20.461Z,933.74
2023-03-18T02:31:21.519Z,933.73
2023-03-18T02:32:21.875Z,933.81
2023-03-18T02:33:22.283Z,933.82
2023-03-18T02:34:22.546Z,933.81
2023-03-18T02:35:23.573Z,933.82
2023-03-18T02:36:24.508Z,933.86
2023-03-18T02:37:25.203Z,933.81
2023-03-18T02:38:25.741Z,933.77
2023-03-18T02:39:25.993Z,933.86
2023-03-18T02:40:26.504Z,933.82
2023-03-18T02:41:27.593Z,933.81
2023-03-18T02:42:28.088Z,933.86
2023-03-18T02:43:28.332Z,933.86
2023-03-18T02:44:28.556Z,933.83
2023-03-18T02:45:29.558Z,933.75
2023-03-18T02:46:29.849Z,933.8
2023-03-18T02:47:30.507Z,933.88
2023-03-18T02:48:30.706Z,933.87
2023-03-18T02:49:31.224Z,933.82
2023-03-18T02:50:32.281Z,933.78
2023-03-18T02:51:32.758Z,933.84
2023-03-18T02:52:32.999Z,933.84
2023-03-18T02:53:33.546Z,933.83
2023-03-18T02:54:34.536Z,933.86
2023-03-18T02:55:34.858Z,933.86
2023-03-18T02:56:35.770Z,933.87
2023-03-18T02:57:35.966Z,933.86
2023-03-18T02:58:36.934Z,933.88
2023-03-18T02:59:37.380Z,933.88
2023-03-18T03:00:38.305Z,933.85
2023-03-18T03:01:39.281Z,933.91
2023-03-18T03:02:40.334Z,933.94
2023-03-18T03:03:40.609Z,933.9
2023-03-18T03:04:41.339Z,933.85
2023-03-18T03:05:42.385Z,933.93
2023-03-18T03:06:43.144Z,933.99
2023-03-18T03:07:44.085Z,933.94
2023-03-18T03:08:44.802Z,934.01
2023-03-18T03:09:45.495Z,934.01
2023-03-18T03:10:46.424Z,934.08
2023-03-18T03:11:47.347Z,934.08
2023-03-18T03:12:48.271Z,934.06
2023-03-18T03:13:48.915Z,934.12
2023-03-18T03:14:49.412Z,934.1
2023-03-18T03:15:50.158Z,934.02
2023-03-18T03:16:50.775Z,934.1
2023-03-18T03:17:51.190Z,934.11
2023-03-18T03:18:52.131Z,934.08
2023-03-18T03:19:53.061Z,934.13
2023-03-18T03:20:53.263Z,934.17
2023-03-18T03:21:54.180Z,934.13
2023-03-18T03:22:55.141Z,934.13
2023-03-18T03:23:56.115Z,934.17
2023-03-18T03:24:56.661Z,934.14
2023-03-18T03:25:57.675Z,934.22
2023-03-18T03:26:58.044Z,934.18
2023-03-18T03:27:58.546Z,934.17
2023-03-18T03:28:58.761Z,934.16
2023-03-18T03:29:58.988Z,934.21
2023-03-18T03:30:59.707Z,934.18
2023-03-18T03:31:59.966Z,934.16
2023-03-18T03:33:00.915Z,934.16
2023-03-18T03:34:01.709Z,934.24
2023-03-18T03:35:02.667Z,934.18
2023-03-18T03:36:03.397Z,934.21
2023-03-18T03:37:03.725Z,934.23
2023-03-18T03:38:04.283Z,934.22
2023-03-18T03:39:04.805Z,934.27
2023-03-18T03:40:05.094Z,934.29
2023-03-18T03:41:05.331Z,934.29
2023-03-18T03:42:05.593Z,934.31
2023-03-18T03:43:06.508Z,934.32
2023-03-18T03:44:06.995Z,934.34
2023-03-18T03:45:07.913Z,934.34
2023-03-18T03:46:08.922Z,934.38
2023-03-18T03:47:09.411Z,934.38
2023-03-18T03:48:09.657Z,934.38
2023-03-18T03:49:10.002Z,934.42
2023-03-18T03:50:10.452Z,934.43
2023-03-18T03:51:11.160Z,934.44
2023-03-18T03:52:12.117Z,934.4
2023-03-18T03:53:13.055Z,934.46
2023-03-18T03:54:13.575Z,934.49
2023-03-18T03:55:14.214Z,934.46
2023-03-18T03:56:14.552Z,934.42
2023-03-18T03:57:14.770Z,934.48
2023-03-18T03:58:14.979Z,934.57
2023-03-18T03:59:15.949Z,934.41
2023-03-18T04:00:16.665Z,934.47
2023-03-18T04:01:17.227Z,934.49
2023-03-18T04:02:17.887Z,934.51
2023-03-18T04:03:19.034Z,934.46
2023-03-18T04:04:19.979Z,934.47
2023-03-18T04:05:20.531Z,934.52
2023-03-18T04:06:20.611Z,934.53
2023-03-18T04:07:21.262Z,934.55
2023-03-18T04:08:22.215Z,934.53
2023-03-18T04:09:22.837Z,934.57
2023-03-18T04:10:23.130Z,934.6
2023-03-18T04:11:24.025Z,934.55
2023-03-18T04:12:24.253Z,934.58
2023-03-18T04:13:25.173Z,934.57
2023-03-18T04:14:25.375Z,934.51
2023-03-18T04:15:25.591Z,934.55
2023-03-18T04:16:26.196Z,934.56
2023-03-18T04:17:27.261Z,934.59
2023-03-18T04:18:27.456Z,934.52
2023-03-18T04:19:27.666Z,934.55
2023-03-18T04:20:28.155Z,934.54
2023-03-18T04:21:29.169Z,934.48
2023-03-18T04:22:29.402Z,934.56
2023-03-18T04:23:30.090Z,934.58
2023-03-18T04:24:30.976Z,934.54
2023-03-18T04:25:31.565Z,934.54
2023-03-18T04:26:32.620Z,934.51
2023-03-18T04:27:33.109Z,934.54
2023-03-18T04:28:34.060Z,934.54
2023-03-18T04:29:34.568Z,934.54
2023-03-18T04:30:35.055Z,934.53
2023-03-18T04:31:35.404Z,934.53
2023-03-18T04:32:36.350Z,934.56
2023-03-18T04:33:36.648Z,934.53
2023-03-18T04:34:37.623Z,934.54
2023-03-18T04:35:38.293Z,934.56
2023-03-18T04:36:38.854Z,934.51
2023-03-18T04:37:39.488Z,934.5
2023-03-18T04:38:40.196Z,934.52
2023-03-18T04:39:40.802Z,934.52
2023-03-18T04:40:41.082Z,934.49
2023-03-18T04:41:41.855Z,934.49
2023-03-18T04:42:42.772Z,934.52
2023-03-18T04:43:42.978Z,934.48
2023-03-18T04:44:43.200Z,934.48
2023-03-18T04:45:44.109Z,934.49
2023-03-18T04:46:44.595Z,934.46
2023-03-18T04:47:45.022Z,934.52
2023-03-18T04:48:45.553Z,934.53
2023-03-18T04:49:46.484Z,934.54
2023-03-18T04:50:46.717Z,934.55
2023-03-18T04:51:47.367Z,934.52
2023-03-18T04:52:48.332Z,934.52
2023-03-18T04:53:48.552Z,934.52
2023-03-18T04:54:49.093Z,934.51
2023-03-18T04:55:49.267Z,934.53
2023-03-18T04:56:49.597Z,934.5
2023-03-18T04:57:50.303Z,934.56
2023-03-18T04:58:50.931Z,934.51
2023-03-18T04:59:51.868Z,934.49
2023-03-18T05:00:52.042Z,934.54
2023-03-18T05:01:52.520Z,934.5
2023-03-18T05:02:53.472Z,934.52
2023-03-18T05:03:53.929Z,934.52
2023-03-18T05:04:54.631Z,934.52
2023-03-18T05:05:55.134Z,934.53
2023-03-18T05:06:55.553Z,934.53
2023-03-18T05:07:56.464Z,934.52
2023-03-18T05:08:56.766Z,934.52
2023-03-18T05:09:57.318Z,934.52
2023-03-18T05:10:57.832Z,934.54
2023-03-18T05:11:58.324Z,934.54
2023-03-18T05:12:59.344Z,934.52
2023-03-18T05:14:00.273Z,934.48
2023-03-18T05:15:01.222Z,934.49
2023-03-18T05:16:01.818Z,934.5
2023-03-18T05:17:02.575Z,934.5
2023-03-18T05:18:03.235Z,934.5
2023-03-18T05:19:03.735Z,934.51
2023-03-18T05:20:04.471Z,934.5
2023-03-18T05:21:04.624Z,934.49
2023-03-18T05:22:04.858Z,934.49
2023-03-18T05:23:05.088Z,934.52
2023-03-18T05:24:05.435Z,934.5
2023-03-18T05:25:06.413Z,934.5
2023-03-18T05:26:06.961Z,934.5
2023-03-18T05:27:07.817Z,934.47
2023-03-18T05:28:10.879Z,934.48
2023-03-18T05:29:08.829Z,934.49
2023-03-18T05:30:09.316Z,934.48
2023-03-18T05:31:09.815Z,934.51
2023-03-18T05:32:10.188Z,934.51
2023-03-18T05:33:10.933Z,934.55
2023-03-18T05:34:11.512Z,934.55
2023-03-18T05:35:12.461Z,934.57
2023-03-18T05:36:12.730Z,934.56
2023-03-18T05:37:13.348Z,934.53
2023-03-18T05:38:13.566Z,934.56
2023-03-18T05:39:13.795Z,934.52
2023-03-18T05:40:14.037Z,934.54
2023-03-18T05:41:15.050Z,934.53
2023-03-18T05:42:16.010Z,934.53
2023-03-18T05:43:16.986Z,934.52
2023-03-18T05:44:17.504Z,934.48
2023-03-18T05:45:17.992Z,934.54
2023-03-18T05:46:18.393Z,934.48
2023-03-18T05:47:18.640Z,934.5
2023-03-18T05:48:19.183Z,934.51
2023-03-18T05:49:20.112Z,934.53
2023-03-18T05:50:21.057Z,934.57
2023-03-18T05:51:21.711Z,934.55
2023-03-18T05:52:21.945Z,934.56
2023-03-18T05:53:22.868Z,934.52
2023-03-18T05:54:23.098Z,934.57
2023-03-18T05:55:23.380Z,934.51
2023-03-18T05:56:23.598Z,934.54
2023-03-18T05:57:24.186Z,934.5
2023-03-18T05:58:25.109Z,934.56
2023-03-18T05:59:25.364Z,934.5
2023-03-18T06:00:26.286Z,934.53
2023-03-18T06:01:26.795Z,934.54
2023-03-18T06:02:27.069Z,934.51
2023-03-18T06:03:27.981Z,934.53
2023-03-18T06:04:28.497Z,934.53
2023-03-18T06:05:29.136Z,934.5
2023-03-18T06:06:30.178Z,934.51
2023-03-18T06:07:31.005Z,934.55
2023-03-18T06:08:31.228Z,934.55
2023-03-18T06:09:31.890Z,934.58
2023-03-18T06:10:32.244Z,934.59
2023-03-18T06:11:32.806Z,934.56
2023-03-18T06:12:33.752Z,934.57
2023-03-18T06:13:34.682Z,934.59
2023-03-18T06:14:34.910Z,934.57
2023-03-18T06:15:35.924Z,934.56
2023-03-18T06:16:36.679Z,934.54
2023-03-18T06:17:37.567Z,934.55
2023-03-18T06:18:38.211Z,934.56
2023-03-18T06:19:39.176Z,934.58
2023-03-18T06:20:39.424Z,934.6
2023-03-18T06:21:40.466Z,934.65
2023-03-18T06:22:41.379Z,934.64
2023-03-18T06:23:41.705Z,934.63
2023-03-18T06:24:42.668Z,934.65
2023-03-18T06:25:43.629Z,934.63
2023-03-18T06:26:43.886Z,934.64
2023-03-18T06:27:44.595Z,934.67
2023-03-18T06:28:45.561Z,934.7
2023-03-18T06:29:46.467Z,934.68
2023-03-18T06:30:47.617Z,934.7
2023-03-18T06:31:47.942Z,934.7
2023-03-18T06:32:48.948Z,934.69
2023-03-18T06:33:49.132Z,934.71
2023-03-18T06:34:49.957Z,934.7
2023-03-18T06:35:50.989Z,934.7
2023-03-18T06:36:51.391Z,934.73
2023-03-18T06:37:51.724Z,934.7
2023-03-18T06:38:51.939Z,934.73
2023-03-18T06:39:52.943Z,934.67
2023-03-18T06:40:53.505Z,934.64
2023-03-18T06:41:54.048Z,934.69
2023-03-18T06:42:54.997Z,934.73
2023-03-18T06:43:55.240Z,934.71
2023-03-18T06:44:56.336Z,934.75
2023-03-18T06:45:56.321Z,934.77
2023-03-18T06:46:56.926Z,934.75
2023-03-18T06:47:57.952Z,934.78
2023-03-18T06:48:58.859Z,934.78
2023-03-18T06:49:59.773Z,934.77
2023-03-18T06:51:00.353Z,934.72
2023-03-18T06:52:01.011Z,934.71
2023-03-18T06:53:01.931Z,934.76
2023-03-18T06:54:02.548Z,934.73
2023-03-18T06:55:02.772Z,934.73
2023-03-18T06:56:03.026Z,934.77
2023-03-18T06:57:03.562Z,934.75
2023-03-18T06:58:03.881Z,934.75
2023-03-18T06:59:04.250Z,934.82
2023-03-18T07:00:04.902Z,934.8
2023-03-18T07:01:05.477Z,934.76
2023-03-18T07:02:05.902Z,934.72
2023-03-18T07:03:06.546Z,934.78
2023-03-18T07:04:07.252Z,934.76
2023-03-18T07:05:07.483Z,934.8
2023-03-18T07:06:08.019Z,934.84
2023-03-18T07:07:08.939Z,934.83
2023-03-18T07:08:09.963Z,934.84
2023-03-18T07:09:10.207Z,934.81
2023-03-18T07:10:10.626Z,934.84
2023-03-18T07:11:10.916Z,934.79
2023-03-18T07:12:11.889Z,934.81
2023-03-18T07:13:12.142Z,934.77
2023-03-18T07:14:13.079Z,934.86
2023-03-18T07:15:14.076Z,934.76
2023-03-18T07:16:14.313Z,934.78
2023-03-18T07:17:14.880Z,934.76
2023-03-18T07:18:15.383Z,934.77
2023-03-18T07:19:16.050Z,934.74
2023-03-18T07:20:16.006Z,934.73
2023-03-18T07:21:16.951Z,934.72
2023-03-18T07:22:17.860Z,934.74
2023-03-18T07:23:18.088Z,934.76
2023-03-18T07:24:19.064Z,934.75
2023-03-18T07:25:21.793Z,934.75
2023-03-18T07:26:20.509Z,934.75
2023-03-18T07:27:20.798Z,934.77
2023-03-18T07:28:21.545Z,934.77
2023-03-18T07:29:22.211Z,934.76
2023-03-18T07:30:22.433Z,934.78
2023-03-18T07:31:23.200Z,934.74
2023-03-18T07:32:24.086Z,934.76
2023-03-18T07:33:24.588Z,934.76
2023-03-18T07:34:25.252Z,934.74
2023-03-18T07:35:26.179Z,934.76
2023-03-18T07:36:26.371Z,934.77
2023-03-18T07:37:27.448Z,934.76
2023-03-18T07:38:27.792Z,934.78
2023-03-18T07:39:28.720Z,934.81
2023-03-18T07:40:29.376Z,934.82
2023-03-18T07:41:30.001Z,934.81
2023-03-18T07:42:30.858Z,934.82
2023-03-18T07:43:31.501Z,934.84
2023-03-18T07:44:31.994Z,934.84
2023-03-18T07:45:33.272Z,934.85
2023-03-18T07:46:33.593Z,934.81
2023-03-18T07:47:34.131Z,934.82
2023-03-18T07:48:34.461Z,934.82
2023-03-18T07:49:35.438Z,934.84
2023-03-18T07:50:35.930Z,934.83
2023-03-18T07:51:36.851Z,934.81
2023-03-18T07:52:37.425Z,934.89
2023-03-18T07:53:38.385Z,934.88
2023-03-18T07:54:38.586Z,934.9
2023-03-18T07:55:39.111Z,934.84
2023-03-18T07:56:39.653Z,934.88
2023-03-18T07:57:40.432Z,934.85
2023-03-18T07:58:40.754Z,934.87
2023-03-18T07:59:41.305Z,934.84
2023-03-18T08:00:41.541Z,934.85
2023-03-18T08:01:41.787Z,934.8
2023-03-18T08:02:42.748Z,934.82
2023-03-18T08:03:43.100Z,934.82
2023-03-18T08:04:43.267Z,934.85
2023-03-18T08:05:43.573Z,934.86
2023-03-18T08:06:43.805Z,934.85
2023-03-18T08:07:44.011Z,934.86
2023-03-18T08:08:44.340Z,934.87
2023-03-18T08:09:44.996Z,934.87
2023-03-18T08:10:45.944Z,934.89
2023-03-18T08:11:46.246Z,934.89
2023-03-18T08:12:52.871Z,934.85
2023-03-18T08:13:47.120Z,934.84
2023-03-18T08:14:47.645Z,934.86
2023-03-18T08:15:47.924Z,934.87
2023-03-18T08:16:48.385Z,934.85
2023-03-18T08:17:49.348Z,934.87
2023-03-18T08:18:49.890Z,934.83
2023-03-18T08:19:50.810Z,934.84
2023-03-18T08:20:51.374Z,934.89
2023-03-18T08:21:51.599Z,934.88
2023-03-18T08:22:52.545Z,934.88
2023-03-18T08:23:53.491Z,934.93
2023-03-18T08:24:54.431Z,934.96
2023-03-18T08:25:54.732Z,934.94
2023-03-18T08:26:54.786Z,934.9
2023-03-18T08:27:55.059Z,934.93
2023-03-18T08:28:55.378Z,934.98
2023-03-18T08:29:55.623Z,934.99
2023-03-18T08:30:56.584Z,934.97
2023-03-18T08:31:57.409Z,934.98
2023-03-18T08:32:58.396Z,935.02
2023-03-18T08:33:58.585Z,934.99
2023-03-18T08:34:58.797Z,935.01
2023-03-18T08:35:59.089Z,935.06
2023-03-18T08:36:59.367Z,935.03
2023-03-18T08:38:00.299Z,935.02
2023-03-18T08:39:01.370Z,935.03
2023-03-18T08:40:02.000Z,934.98
2023-03-18T08:41:02.735Z,935
2023-03-18T08:42:03.275Z,935
2023-03-18T08:43:03.875Z,934.98
2023-03-18T08:44:04.386Z,934.94
2023-03-18T08:45:04.617Z,934.9
2023-03-18T08:46:04.961Z,934.86
2023-03-18T08:47:05.618Z,934.85
2023-03-18T08:48:06.408Z,934.86
2023-03-18T08:49:07.212Z,934.83
2023-03-18T08:50:07.592Z,934.82
2023-03-18T08:51:08.110Z,934.81
2023-03-18T08:52:08.608Z,934.78
2023-03-18T08:53:09.563Z,934.79
2023-03-18T08:54:10.221Z,934.8
2023-03-18T08:55:10.890Z,934.8
2023-03-18T08:56:11.319Z,934.81
2023-03-18T08:57:11.864Z,934.86
2023-03-18T08:58:12.536Z,934.84
2023-03-18T08:59:12.848Z,934.84
2023-03-18T09:00:13.774Z,934.77
2023-03-18T09:01:14.096Z,934.79
2023-03-18T09:02:14.754Z,934.79
2023-03-18T09:03:15.316Z,934.75
2023-03-18T09:04:16.331Z,934.77
2023-03-18T09:05:17.301Z,934.76
2023-03-18T09:06:18.088Z,934.81
2023-03-18T09:07:19.220Z,934.82
2023-03-18T09:08:19.556Z,934.86
2023-03-18T09:09:21.528Z,934.92
2023-03-18T09:10:21.158Z,934.89
2023-03-18T09:11:21.747Z,934.88
2023-03-18T09:12:22.294Z,934.91
2023-03-18T09:13:23.270Z,934.88
2023-03-18T09:14:23.822Z,934.94
2023-03-18T09:15:24.083Z,934.91
2023-03-18T09:16:24.530Z,934.9
2023-03-18T09:17:39.266Z,934.91
2023-03-18T09:18:25.783Z,934.89
2023-03-18T09:19:26.540Z,934.9
2023-03-18T09:20:27.513Z,934.91
2023-03-18T09:21:28.174Z,934.89
2023-03-18T09:22:29.106Z,934.93
2023-03-18T09:23:30.063Z,934.88
2023-03-18T09:24:30.292Z,934.9
2023-03-18T09:25:30.925Z,934.87
2023-03-18T09:26:31.312Z,934.86
2023-03-18T09:27:31.604Z,934.85
2023-03-18T09:28:31.868Z,934.87
2023-03-18T09:29:32.621Z,934.88
2023-03-18T09:30:32.869Z,934.87
2023-03-18T09:31:33.893Z,934.9
2023-03-18T09:32:34.458Z,934.93
2023-03-18T09:33:34.991Z,934.91
2023-03-18T09:34:35.216Z,934.87
2023-03-18T09:35:35.966Z,934.91
2023-03-18T09:36:35.962Z,934.9
2023-03-18T09:37:36.275Z,934.92
2023-03-18T09:38:36.778Z,934.93
2023-03-18T09:39:37.488Z,934.92
2023-03-18T09:40:38.786Z,934.92
2023-03-18T09:41:38.804Z,934.91
2023-03-18T09:42:39.370Z,934.89
2023-03-18T09:43:39.616Z,934.9
2023-03-18T09:44:40.130Z,934.9
2023-03-18T09:45:40.672Z,934.92
2023-03-18T09:46:41.483Z,934.96
2023-03-18T09:47:42.231Z,934.91
2023-03-18T09:48:42.774Z,934.89
2023-03-18T09:49:43.086Z,934.88
2023-03-18T09:50:43.338Z,934.95
2023-03-18T09:51:44.001Z,934.93
2023-03-18T09:52:44.526Z,934.95
2023-03-18T09:53:44.775Z,934.93
2023-03-18T09:54:45.757Z,934.94
2023-03-18T09:55:46.699Z,934.93
2023-03-18T09:56:47.720Z,934.9
2023-03-18T09:57:48.268Z,934.89
2023-03-18T09:58:48.537Z,934.9
2023-03-18T09:59:48.910Z,934.87
2023-03-18T10:00:49.908Z,934.93
2023-03-18T10:01:50.361Z,934.93
2023-03-18T10:02:51.044Z,934.94
2023-03-18T10:03:51.868Z,934.99
2023-03-18T10:04:52.039Z,934.91
2023-03-18T10:05:52.859Z,934.93
2023-03-18T10:06:53.089Z,934.94
2023-03-18T10:07:53.757Z,934.91
2023-03-18T10:08:54.713Z,934.91
2023-03-18T10:09:55.757Z,934.92
2023-03-18T10:10:56.135Z,934.92
2023-03-18T10:11:56.803Z,934.96
2023-03-18T10:12:57.351Z,935.01
2023-03-18T10:13:57.611Z,934.97
2023-03-18T10:14:58.553Z,934.96
2023-03-18T10:15:59.341Z,934.95
2023-03-18T10:17:00.012Z,934.94
2023-03-18T10:18:00.282Z,935.01
2023-03-18T10:19:01.321Z,934.95
2023-03-18T10:20:01.748Z,934.9
2023-03-18T10:21:02.058Z,934.93
2023-03-18T10:22:02.565Z,934.96
2023-03-18T10:23:03.532Z,934.94
2023-03-18T10:24:04.480Z,934.97
2023-03-18T10:25:05.009Z,934.9
2023-03-18T10:26:05.258Z,934.93
2023-03-18T10:27:06.265Z,934.97
2023-03-18T10:28:06.605Z,934.92
2023-03-18T10:29:06.868Z,934.94
2023-03-18T10:30:07.184Z,934.97
2023-03-18T10:31:07.553Z,934.92
2023-03-18T10:32:08.392Z,934.93
2023-03-18T10:33:09.324Z,934.93
2023-03-18T10:34:10.110Z,934.94
2023-03-18T10:35:10.342Z,934.92
2023-03-18T10:36:10.609Z,934.85
2023-03-18T10:37:11.418Z,934.85
2023-03-18T10:38:12.356Z,934.83
2023-03-18T10:39:12.590Z,934.8
2023-03-18T10:40:12.734Z,934.81
2023-03-18T10:41:13.762Z,934.81
2023-03-18T10:42:14.210Z,934.77
2023-03-18T10:43:14.783Z,934.77
2023-03-18T10:44:15.060Z,934.75
2023-03-18T10:45:15.736Z,934.74
2023-03-18T10:46:16.792Z,934.72
2023-03-18T10:47:17.044Z,934.72
2023-03-18T10:48:17.662Z,934.7
2023-03-18T10:49:18.604Z,934.66
2023-03-18T10:50:19.397Z,934.61
2023-03-18T10:51:19.607Z,934.64
2023-03-18T10:52:19.835Z,934.62
2023-03-18T10:53:20.074Z,934.66
2023-03-18T10:54:21.022Z,934.69
2023-03-18T10:55:21.253Z,934.68
2023-03-18T10:56:21.483Z,934.69
2023-03-18T10:57:22.452Z,934.72
2023-03-18T10:58:23.029Z,934.66
2023-03-18T10:59:23.357Z,934.64
2023-03-18T11:00:24.185Z,934.69
2023-03-18T11:01:25.027Z,934.66
2023-03-18T11:02:25.505Z,934.59
2023-03-18T11:03:25.668Z,934.56
2023-03-18T11:04:25.925Z,934.54
2023-03-18T11:05:26.895Z,934.55
2023-03-18T11:06:27.104Z,934.5
2023-03-18T11:07:27.788Z,934.48
2023-03-18T11:08:28.301Z,934.49
2023-03-18T11:09:28.937Z,934.5
2023-03-18T11:10:29.767Z,934.5
2023-03-18T11:11:30.473Z,934.47
2023-03-18T11:12:31.394Z,934.44
2023-03-18T11:13:31.673Z,934.43
2023-03-18T11:14:31.936Z,934.4
2023-03-18T11:15:33.052Z,934.37
2023-03-18T11:16:33.791Z,934.35
2023-03-18T11:17:34.796Z,934.31
2023-03-18T11:18:35.032Z,934.33
2023-03-18T11:19:35.536Z,934.26
2023-03-18T11:20:36.631Z,934.23
2023-03-18T11:21:36.856Z,934.19
2023-03-18T11:22:37.107Z,934.15
2023-03-18T11:23:38.057Z,934.2
2023-03-18T11:24:38.624Z,934.19
2023-03-18T11:25:39.630Z,934.2
2023-03-18T11:26:39.912Z,934.21
2023-03-18T11:27:40.270Z,934.22
2023-03-18T11:28:40.478Z,934.13
2023-03-18T11:29:41.508Z,934.16
2023-03-18T11:30:42.070Z,934.1
2023-03-18T11:31:42.607Z,934.11
2023-03-18T11:32:43.597Z,934.03
2023-03-18T11:33:43.992Z,934.05
2023-03-18T11:34:44.648Z,934.01
2023-03-18T11:35:44.940Z,934.01
2023-03-18T11:36:45.450Z,934.02
2023-03-18T11:37:45.673Z,933.98
2023-03-18T11:38:46.668Z,933.94
2023-03-18T11:39:47.184Z,933.91
2023-03-18T11:40:47.647Z,933.91
2023-03-18T11:41:48.597Z,933.89
2023-03-18T11:42:49.627Z,933.91
2023-03-18T11:43:50.631Z,933.87
2023-03-18T11:44:51.716Z,933.92
2023-03-18T11:45:51.954Z,933.88
2023-03-18T11:46:52.219Z,933.86
2023-03-18T11:47:52.472Z,933.85
2023-03-18T11:48:53.439Z,933.82
2023-03-18T11:49:54.401Z,933.78
2023-03-18T11:52:56.859Z,933.69
2023-03-18T15:44:30.884Z,932.53
2023-03-18T15:45:31.570Z,932.54
2023-03-18T15:46:31.910Z,932.52
2023-03-18T15:47:32.145Z,932.49
2023-03-18T15:48:32.397Z,932.48
2023-03-18T15:49:32.609Z,932.49
2023-03-18T15:50:33.245Z,932.45
2023-03-18T15:51:33.475Z,932.43
2023-03-18T15:52:33.909Z,932.45
2023-03-18T15:53:34.461Z,932.42
2023-03-18T15:54:35.417Z,932.44
2023-03-18T15:55:36.000Z,932.43
2023-03-18T15:56:36.498Z,932.41
2023-03-18T15:57:36.848Z,932.45
2023-03-18T15:58:37.087Z,932.46
2023-03-18T15:59:38.042Z,932.43
2023-03-18T16:00:38.651Z,932.5
2023-03-18T16:01:39.492Z,932.48
2023-03-18T16:02:40.484Z,932.49
2023-03-18T16:03:40.769Z,932.49
2023-03-18T16:04:41.136Z,932.49
2023-03-18T16:05:41.436Z,932.43
2023-03-18T16:06:41.674Z,932.45
2023-03-18T16:07:42.186Z,932.46
2023-03-18T16:08:43.176Z,932.44
2023-03-18T16:09:44.116Z,932.52
2023-03-18T16:10:44.878Z,932.52
2023-03-18T16:11:45.792Z,932.53
2023-03-18T16:12:46.305Z,932.55
2023-03-18T16:13:46.507Z,932.52
2023-03-18T16:14:46.804Z,932.52
2023-03-18T16:15:47.422Z,932.53
2023-03-18T16:16:48.180Z,932.51
2023-03-18T16:17:49.140Z,932.56
2023-03-18T16:18:49.648Z,932.57
2023-03-18T16:19:49.868Z,932.59
2023-03-18T16:20:50.563Z,932.63
2023-03-18T16:21:51.255Z,932.65
2023-03-18T16:22:51.491Z,932.69
2023-03-18T16:23:52.046Z,932.68
2023-03-18T16:24:52.288Z,932.69
2023-03-18T16:25:52.594Z,932.7
2023-03-18T16:26:53.528Z,932.67
2023-03-18T16:27:54.511Z,932.73
2023-03-18T16:28:55.177Z,932.7
2023-03-18T16:29:55.589Z,932.68
2023-03-18T16:30:55.717Z,932.74
2023-03-18T16:31:56.767Z,932.74
2023-03-18T16:32:57.694Z,932.73